Time;durP1;ratioP1;P1;durP2;ratioP2;P2;SDS_P1;SDS_P2;PMS_P1;PMS_P2;Temp;Humidity;BMP_temperature;BMP_pressure;BME280_temperature;BME280_humidity;BME280_pressure;Samples;Min_cycle;Max_cycle;Signal;HPM_P1;HPM_P2
2022/06/06 00:01:18;;;;;;;7.27;3.03;;;18.30;99.90;;;;;;5030840;28;20420;-90
2022/06/06 00:04:04;;;;;;;6.20;2.60;;;18.20;99.90;;;;;;5030795;28;20920;-90
2022/06/06 00:06:52;;;;;;;11.40;3.33;;;18.10;99.90;;;;;;5021728;28;20450;-91
2022/06/06 00:09:38;;;;;;;4.63;3.40;;;18.00;99.90;;;;;;5030640;28;20427;-92
2022/06/06 00:12:24;;;;;;;6.30;3.57;;;17.90;99.90;;;;;;5026488;28;20462;-91
2022/06/06 00:15:13;;;;;;;9.30;4.10;;;17.90;99.90;;;;;;5032535;28;20507;-91
2022/06/06 00:18:01;;;;;;;6.40;4.00;;;17.80;99.90;;;;;;5026947;28;20977;-90
2022/06/06 00:20:46;;;;;;;31.97;3.60;;;17.80;99.90;;;;;;5036515;28;20442;-91
2022/06/06 00:23:32;;;;;;;5.00;3.63;;;17.80;99.90;;;;;;5044272;28;20988;-90
2022/06/06 00:26:18;;;;;;;5.20;3.53;;;17.80;99.90;;;;;;5026947;28;20474;-91
2022/06/06 00:29:06;;;;;;;4.90;3.87;;;17.70;99.90;;;;;;5017453;28;20408;-90
2022/06/06 00:34:58;;;;;;;7.03;3.90;;;17.70;99.90;;;;;;5036583;28;20399;-90
2022/06/06 00:37:44;;;;;;;21.17;4.23;;;17.70;99.90;;;;;;5034082;28;21017;-91
2022/06/06 00:40:30;;;;;;;11.40;5.10;;;17.70;99.90;;;;;;5031364;28;20511;-90
2022/06/06 00:43:16;;;;;;;6.03;4.80;;;17.70;99.90;;;;;;5035892;28;20424;-91
2022/06/06 00:46:02;;;;;;;7.67;4.70;;;17.70;99.90;;;;;;5034083;28;20509;-91
2022/06/06 00:48:47;;;;;;;8.90;5.03;;;17.80;99.90;;;;;;5023119;28;20398;-90
2022/06/06 00:51:35;;;;;;;13.47;5.00;;;17.80;99.90;;;;;;5037339;28;20442;-90
2022/06/06 00:54:23;;;;;;;9.37;4.53;;;17.90;99.90;;;;;;5021561;28;20444;-90
2022/06/06 00:57:13;;;;;;;6.97;4.37;;;17.90;99.90;;;;;;5030575;28;20438;-91
2022/06/06 01:00:01;;;;;;;6.80;4.53;;;17.90;99.90;;;;;;5033645;28;20410;-91
2022/06/06 01:02:53;;;;;;;5.83;4.50;;;17.90;99.90;;;;;;5036746;28;20827;-91
2022/06/06 01:05:40;;;;;;;13.70;4.70;;;18.00;99.90;;;;;;5032751;28;20458;-91
2022/06/06 01:08:29;;;;;;;9.03;4.80;;;18.10;99.90;;;;;;5029492;28;20498;-90
2022/06/06 01:11:15;;;;;;;8.33;4.30;;;18.10;99.90;;;;;;5025835;28;20900;-90
2022/06/06 01:14:02;;;;;;;7.23;4.30;;;18.10;99.90;;;;;;5016428;28;20428;-91
2022/06/06 01:16:53;;;;;;;8.33;4.73;;;18.10;99.90;;;;;;5023186;28;20440;-90
2022/06/06 01:20:12;;;;;;;6.33;4.93;;;18.00;99.90;;;;;;5019062;28;20404;-91
2022/06/06 01:23:33;;;;;;;10.57;5.33;;;18.00;99.90;;;;;;5013325;28;20432;-90
2022/06/06 01:26:39;;;;;;;6.13;4.67;;;18.00;99.90;;;;;;5021668;28;20439;-91
2022/06/06 01:29:29;;;;;;;5.57;4.73;;;18.00;99.90;;;;;;5032461;28;20974;-90
2022/06/06 01:32:19;;;;;;;6.23;4.90;;;18.00;99.90;;;;;;5036401;28;20450;-90
2022/06/06 01:35:06;;;;;;;9.60;4.30;;;18.00;99.90;;;;;;5033904;28;20452;-91
2022/06/06 01:37:52;;;;;;;9.90;4.80;;;18.00;99.90;;;;;;5028319;28;20419;-91
2022/06/06 01:40:43;;;;;;;6.47;5.30;;;18.00;99.90;;;;;;5035701;28;20811;-91
2022/06/06 01:43:35;;;;;;;5.60;5.00;;;17.80;99.90;;;;;;5036061;28;20416;-92
2022/06/06 01:46:28;;;;;;;7.83;5.00;;;17.80;99.90;;;;;;5030835;28;20550;-91
2022/06/06 01:49:16;;;;;;;7.00;4.87;;;17.60;99.90;;;;;;5036226;28;20444;-91
2022/06/06 01:52:05;;;;;;;8.50;5.10;;;17.40;99.90;;;;;;5038383;28;20525;-90
2022/06/06 01:54:54;;;;;;;6.80;5.30;;;17.40;99.90;;;;;;5033361;28;20419;-92
2022/06/06 01:57:40;;;;;;;9.43;5.73;;;17.30;99.90;;;;;;5026239;28;20421;-91
2022/06/06 02:00:26;;;;;;;7.13;4.90;;;17.20;99.90;;;;;;5036456;28;20427;-90
2022/06/06 02:03:13;;;;;;;12.43;4.73;;;17.20;99.90;;;;;;5035785;28;20496;-91
2022/06/06 02:05:59;;;;;;;7.50;5.20;;;17.10;99.90;;;;;;5028918;28;20538;-90
2022/06/06 02:08:47;;;;;;;7.80;5.30;;;17.00;99.90;;;;;;5029574;28;20502;-90
2022/06/06 02:11:32;;;;;;;12.33;4.90;;;17.00;99.90;;;;;;5016135;28;20395;-91
2022/06/06 02:14:18;;;;;;;6.37;4.63;;;17.00;99.90;;;;;;5016633;28;20450;-91
2022/06/06 02:17:06;;;;;;;8.70;5.30;;;17.00;99.90;;;;;;5025625;28;20491;-91
2022/06/06 02:19:53;;;;;;;6.60;4.53;;;17.10;99.90;;;;;;5036066;28;20396;-91
2022/06/06 02:22:39;;;;;;;6.10;4.87;;;16.90;99.90;;;;;;5036898;28;20423;-92
2022/06/06 02:25:26;;;;;;;8.07;4.80;;;16.90;99.90;;;;;;5024509;28;20531;-91
2022/06/06 02:28:12;;;;;;;7.87;5.50;;;16.90;99.90;;;;;;5028947;28;20450;-90
2022/06/06 02:30:57;;;;;;;5.20;4.53;;;16.80;99.90;;;;;;5035199;28;20421;-91
2022/06/06 02:33:44;;;;;;;5.73;4.47;;;16.80;99.90;;;;;;5034642;28;20451;-91
2022/06/06 02:36:31;;;;;;;8.67;5.43;;;16.80;99.90;;;;;;5022826;28;20532;-92
2022/06/06 02:39:17;;;;;;;7.63;4.30;;;16.80;99.90;;;;;;5030783;28;20398;-90
2022/06/06 02:42:03;;;;;;;7.00;4.33;;;16.70;99.90;;;;;;5033811;28;20410;-91
2022/06/06 02:44:49;;;;;;;6.10;5.40;;;16.70;99.90;;;;;;5029292;28;20456;-91
2022/06/06 02:47:34;;;;;;;6.53;5.20;;;16.70;99.90;;;;;;5023712;28;20462;-92
2022/06/06 02:50:23;;;;;;;5.53;4.93;;;16.50;99.90;;;;;;5015426;28;20404;-91
2022/06/06 02:53:11;;;;;;;8.93;5.40;;;16.40;99.90;;;;;;5030020;28;20468;-91
2022/06/06 02:55:58;;;;;;;21.07;5.40;;;16.40;99.90;;;;;;5025530;22;20616;-76
2022/06/06 02:58:43;;;;;;;8.00;5.83;;;16.30;99.90;;;;;;5011703;28;20432;-76
2022/06/06 03:01:29;;;;;;;8.10;6.57;;;16.20;99.90;;;;;;5011847;28;20424;-75
2022/06/06 03:04:14;;;;;;;11.13;6.10;;;16.20;99.90;;;;;;4990811;28;20442;-75
2022/06/06 03:07:16;;;;;;;10.17;6.40;;;16.10;99.90;;;;;;4997935;28;20487;-76
2022/06/06 03:10:16;;;;;;;10.57;6.50;;;16.20;99.90;;;;;;4972968;28;20396;-76
2022/06/06 03:13:15;;;;;;;12.07;8.37;;;16.30;99.90;;;;;;4971973;28;20475;-76
2022/06/06 03:22:56;;;;;;;10.70;7.27;;;16.50;99.90;;;;;;4999112;28;20884;-75
2022/06/06 03:25:49;;;;;;;9.30;7.73;;;16.60;99.90;;;;;;4999495;28;20480;-76
2022/06/06 03:28:45;;;;;;;10.20;8.27;;;16.70;99.90;;;;;;4972288;28;20481;-76
2022/06/06 03:31:45;;;;;;;10.40;7.83;;;16.70;99.90;;;;;;4972401;28;20421;-76
2022/06/06 03:34:39;;;;;;;13.03;8.03;;;16.80;99.90;;;;;;4984491;28;20470;-75
2022/06/06 03:37:31;;;;;;;11.43;7.77;;;16.80;99.90;;;;;;4996369;28;20491;-75
2022/06/06 03:40:24;;;;;;;13.50;7.23;;;16.80;99.90;;;;;;4991436;28;20401;-75
2022/06/06 03:43:22;;;;;;;7.80;6.50;;;16.80;99.90;;;;;;4989716;28;20808;-75
2022/06/06 03:46:19;;;;;;;13.17;7.30;;;16.80;99.90;;;;;;4995024;28;20885;-76
2022/06/06 03:49:22;;;;;;;13.60;7.13;;;16.80;99.90;;;;;;4972336;28;20487;-75
2022/06/06 03:52:16;;;;;;;7.17;6.43;;;16.80;99.90;;;;;;4977717;28;21006;-76
2022/06/06 03:55:13;;;;;;;10.50;7.67;;;16.80;99.90;;;;;;4992853;28;20548;-76
2022/06/06 03:58:04;;;;;;;10.87;7.80;;;16.90;99.90;;;;;;5010762;28;20547;-75
2022/06/06 04:00:55;;;;;;;9.63;7.37;;;17.00;99.90;;;;;;5007273;28;20507;-75
2022/06/06 04:03:43;;;;;;;10.87;8.00;;;17.00;99.90;;;;;;4989684;28;20450;-75
2022/06/06 04:06:32;;;;;;;17.20;6.93;;;17.00;99.90;;;;;;4997676;28;20434;-76
2022/06/06 04:09:17;;;;;;;8.50;7.17;;;17.00;99.90;;;;;;4989604;28;20934;-76
2022/06/06 04:12:17;;;;;;;10.43;7.17;;;17.00;99.90;;;;;;4991173;28;20489;-75
2022/06/06 04:15:17;;;;;;;14.97;7.20;;;17.10;99.90;;;;;;4980430;28;20521;-75
2022/06/06 04:18:12;;;;;;;9.30;7.33;;;17.10;99.90;;;;;;4990446;28;20393;-76
2022/06/06 04:21:10;;;;;;;9.37;7.03;;;17.10;99.90;;;;;;4971804;28;20406;-75
2022/06/06 04:24:09;;;;;;;8.43;7.27;;;17.10;99.90;;;;;;4995129;28;20937;-76
2022/06/06 04:27:03;;;;;;;10.00;7.43;;;17.20;99.90;;;;;;5003381;28;20448;-75
2022/06/06 04:29:56;;;;;;;16.60;7.10;;;17.30;99.90;;;;;;5011121;28;20873;-75
2022/06/06 04:32:57;;;;;;;13.63;7.77;;;17.40;99.90;;;;;;4985077;28;20970;-75
2022/06/06 04:35:55;;;;;;;8.07;6.60;;;17.50;99.90;;;;;;4995976;28;20803;-75
2022/06/06 04:38:44;;;;;;;10.53;7.27;;;17.50;99.90;;;;;;4991447;28;20430;-76
2022/06/06 04:41:37;;;;;;;9.33;6.80;;;17.60;99.90;;;;;;4990707;28;20447;-75
2022/06/06 04:44:30;;;;;;;8.30;7.07;;;17.60;99.90;;;;;;4997453;28;20929;-75
2022/06/06 04:47:22;;;;;;;13.70;6.67;;;17.70;99.90;;;;;;4988430;28;20394;-75
2022/06/06 04:50:10;;;;;;;11.67;6.67;;;17.80;99.90;;;;;;4991609;28;20478;-76
2022/06/06 04:53:04;;;;;;;7.47;6.77;;;17.90;99.90;;;;;;4990346;28;20478;-75
2022/06/06 04:55:51;;;;;;;8.57;7.67;;;18.00;99.90;;;;;;4989088;28;20452;-75
2022/06/06 04:58:40;;;;;;;7.10;6.40;;;18.10;99.90;;;;;;4990997;28;20814;-76
2022/06/06 05:01:26;;;;;;;9.30;7.17;;;18.20;99.90;;;;;;4989842;28;20477;-76
2022/06/06 05:04:12;;;;;;;7.90;7.10;;;18.30;99.90;;;;;;4998561;28;20456;-76
2022/06/06 05:07:20;;;;;;;8.60;6.80;;;18.30;99.90;;;;;;4975303;28;20444;-76
2022/06/06 05:10:22;;;;;;;9.40;7.60;;;18.40;99.90;;;;;;4974721;28;20430;-76
2022/06/06 05:13:36;;;;;;;7.17;6.30;;;18.40;99.90;;;;;;4986844;28;20469;-76
2022/06/06 05:16:43;;;;;;;11.23;6.17;;;18.40;99.90;;;;;;4994163;28;20409;-75
2022/06/06 05:19:47;;;;;;;6.33;5.70;;;18.50;99.90;;;;;;4994118;28;20521;-75
2022/06/06 05:22:56;;;;;;;9.87;6.83;;;18.40;99.90;;;;;;4992638;28;20466;-75
2022/06/06 05:26:03;;;;;;;8.37;6.27;;;18.40;99.90;;;;;;4998002;28;20473;-75
2022/06/06 05:29:08;;;;;;;13.27;6.33;;;18.30;99.90;;;;;;4992991;28;21226;-76
2022/06/06 05:32:10;;;;;;;8.73;6.70;;;18.30;99.90;;;;;;4976224;28;21039;-75
2022/06/06 05:35:04;;;;;;;7.83;6.90;;;18.20;99.90;;;;;;4998364;28;20408;-75
2022/06/06 05:38:01;;;;;;;9.87;7.37;;;18.30;99.90;;;;;;4994352;28;20532;-76
2022/06/06 05:40:56;;;;;;;7.73;6.90;;;18.40;99.90;;;;;;4993890;28;20442;-76
2022/06/06 05:43:52;;;;;;;8.03;7.10;;;18.50;99.90;;;;;;4994018;28;20450;-76
2022/06/06 05:46:48;;;;;;;12.53;6.70;;;18.60;99.90;;;;;;4974263;28;20768;-76
2022/06/06 05:49:49;;;;;;;12.00;6.20;;;18.60;99.90;;;;;;4974250;28;20784;-75
2022/06/06 05:53:00;;;;;;;11.93;5.90;;;18.70;99.90;;;;;;4989033;28;20555;-75
2022/06/06 05:56:03;;;;;;;7.63;6.87;;;18.80;99.90;;;;;;4993134;28;20967;-75
2022/06/06 05:59:10;;;;;;;7.17;5.87;;;18.80;99.90;;;;;;4991957;28;20436;-76
2022/06/06 06:02:11;;;;;;;7.53;6.33;;;19.00;99.90;;;;;;4991850;28;20443;-75
2022/06/06 06:05:11;;;;;;;9.23;6.40;;;19.00;99.90;;;;;;5004282;28;20482;-76
2022/06/06 06:08:09;;;;;;;9.67;6.70;;;18.90;99.90;;;;;;5012956;28;20509;-75
2022/06/06 06:11:05;;;;;;;8.03;6.43;;;18.70;99.90;;;;;;5011847;28;20761;-76
2022/06/06 06:14:07;;;;;;;13.73;6.00;;;18.60;99.90;;;;;;5002554;28;20496;-75
2022/06/06 06:17:01;;;;;;;9.37;6.50;;;18.60;99.90;;;;;;5012867;28;20403;-75
2022/06/06 06:19:51;;;;;;;10.80;6.70;;;18.60;99.90;;;;;;5011996;28;20488;-75
2022/06/06 06:22:40;;;;;;;9.90;6.50;;;18.70;99.90;;;;;;4997274;28;20452;-75
2022/06/06 06:25:27;;;;;;;9.17;5.60;;;18.80;99.90;;;;;;4987229;28;20429;-76
2022/06/06 06:28:14;;;;;;;12.53;6.93;;;18.80;99.90;;;;;;4992078;28;20506;-76
2022/06/06 06:31:17;;;;;;;10.23;6.60;;;18.70;99.90;;;;;;4990252;28;20462;-76
2022/06/06 06:34:17;;;;;;;9.40;6.83;;;18.70;99.90;;;;;;4973595;28;20449;-76
2022/06/06 06:37:15;;;;;;;8.23;6.77;;;18.50;99.90;;;;;;4973724;28;20427;-76
2022/06/06 06:40:11;;;;;;;10.87;6.83;;;18.50;99.90;;;;;;4973436;28;20507;-76
2022/06/06 06:43:10;;;;;;;7.63;6.70;;;18.60;99.90;;;;;;4995010;28;20572;-76
2022/06/06 06:46:00;;;;;;;8.23;5.73;;;18.60;99.90;;;;;;5012411;28;20408;-75
2022/06/06 06:48:51;;;;;;;8.40;5.73;;;18.60;99.90;;;;;;5011671;28;20500;-76
2022/06/06 06:51:46;;;;;;;8.37;6.33;;;18.60;99.90;;;;;;5000757;28;20854;-76
2022/06/06 06:54:50;;;;;;;12.53;5.50;;;18.70;99.90;;;;;;4999273;28;20602;-76
2022/06/06 06:58:00;;;;;;;9.87;6.40;;;18.80;99.90;;;;;;4983400;28;20492;-75
2022/06/06 07:00:52;;;;;;;12.13;6.73;;;18.80;99.90;;;;;;4988775;28;20432;-76
2022/06/06 07:10:30;;;;;;;8.20;5.93;;;18.70;99.90;;;;;;4974425;28;20483;-75
2022/06/06 07:13:35;;;;;;;6.93;5.53;;;18.80;99.90;;;;;;5003323;28;20456;-75
2022/06/06 07:16:24;;;;;;;5.73;5.10;;;18.90;99.90;;;;;;4992019;28;20500;-76
2022/06/06 07:19:16;;;;;;;11.33;4.87;;;18.90;99.90;;;;;;4992244;28;20993;-76
2022/06/06 07:22:04;;;;;;;8.50;6.17;;;18.80;99.90;;;;;;4998191;28;20444;-75
2022/06/06 07:24:58;;;;;;;7.10;5.93;;;19.00;99.90;;;;;;4989593;28;20604;-75
2022/06/06 07:27:43;;;;;;;5.90;5.27;;;19.10;99.90;;;;;;4990746;28;20824;-76
2022/06/06 07:30:33;;;;;;;6.50;5.20;;;19.30;99.90;;;;;;4987521;28;20459;-75
2022/06/06 07:33:32;;;;;;;6.53;5.70;;;19.30;99.90;;;;;;4971985;28;20766;-76
2022/06/06 07:36:29;;;;;;;10.50;6.87;;;19.30;99.90;;;;;;4972902;28;20397;-76
2022/06/06 07:39:26;;;;;;;6.30;5.30;;;19.30;99.90;;;;;;4972241;28;20450;-75
2022/06/06 07:42:24;;;;;;;9.40;5.07;;;19.40;99.90;;;;;;5000595;28;20461;-76
2022/06/06 07:45:20;;;;;;;8.17;5.80;;;19.50;99.90;;;;;;4991284;28;20429;-75
2022/06/06 07:48:35;;;;;;;9.97;6.20;;;19.70;99.90;;;;;;4991542;28;20397;-75
2022/06/06 07:51:37;;;;;;;8.00;5.17;;;19.80;99.90;;;;;;4976369;28;20462;-75
2022/06/06 07:54:32;;;;;;;6.00;5.40;;;19.80;99.90;;;;;;4985555;28;20435;-75
2022/06/06 07:57:26;;;;;;;10.20;5.37;;;19.80;99.90;;;;;;4988060;28;20429;-75
2022/06/06 08:00:16;;;;;;;6.47;5.87;;;19.80;99.90;;;;;;4984797;28;20587;-74
2022/06/06 08:03:15;;;;;;;6.70;5.20;;;19.90;99.90;;;;;;4976480;28;20970;-75
2022/06/06 08:06:14;;;;;;;6.70;4.60;;;19.90;99.90;;;;;;4991428;28;20454;-75
2022/06/06 08:09:32;;;;;;;5.50;4.63;;;19.80;99.90;;;;;;4990771;28;20539;-75
2022/06/06 08:12:37;;;;;;;9.97;5.60;;;19.80;99.90;;;;;;5001445;28;20961;-76
2022/06/06 08:15:29;;;;;;;5.87;4.87;;;19.90;99.90;;;;;;5026055;22;20435;-71
2022/06/06 08:18:40;;;;;;;7.00;5.00;;;19.80;99.90;;;;;;5010581;28;20441;-72
2022/06/06 08:21:30;;;;;;;5.43;4.77;;;19.80;99.90;;;;;;5023371;28;20441;-71
2022/06/06 08:24:21;;;;;;;9.63;5.10;;;19.90;99.90;;;;;;4995357;28;20754;-71
2022/06/06 08:27:11;;;;;;;7.80;4.77;;;20.10;99.90;;;;;;5010858;28;20450;-72
2022/06/06 08:29:58;;;;;;;5.70;5.20;;;20.20;99.90;;;;;;5010971;28;20456;-71
2022/06/06 08:32:44;;;;;;;8.20;5.30;;;20.30;99.90;;;;;;5016459;28;20945;-71
2022/06/06 08:35:41;;;;;;;11.17;5.03;;;20.40;99.90;;;;;;5029897;28;20599;-71
2022/06/06 08:38:39;;;;;;;5.73;4.60;;;20.30;99.90;;;;;;5029018;28;20797;-72
2022/06/06 08:41:58;;;;;;;6.87;5.80;;;20.40;99.90;;;;;;5013180;28;20472;-71
2022/06/06 08:45:03;;;;;;;6.80;5.33;;;20.60;99.90;;;;;;5014496;28;20391;-71
2022/06/06 08:48:02;;;;;;;9.70;5.87;;;20.60;99.90;;;;;;5013942;28;20407;-72
2022/06/06 08:51:22;;;;;;;5.37;4.87;;;20.30;99.90;;;;;;5023638;28;20796;-72
2022/06/06 08:54:46;;;;;;;8.00;5.13;;;20.30;99.90;;;;;;5010274;28;20603;-71
2022/06/06 08:57:50;;;;;;;17.03;6.67;;;20.30;99.90;;;;;;4977176;28;20434;-71
2022/06/06 09:00:49;;;;;;;5.30;4.40;;;20.30;99.90;;;;;;5006760;28;20436;-71
2022/06/06 09:04:15;;;;;;;6.57;4.30;;;20.30;99.90;;;;;;5026171;28;20437;-71
2022/06/06 09:07:52;;;;;;;5.70;4.27;;;20.10;99.90;;;;;;5013176;28;20448;-72
2022/06/06 09:11:06;;;;;;;6.20;4.90;;;20.30;99.90;;;;;;4984867;28;20627;-72
2022/06/06 09:14:34;;;;;;;5.80;4.77;;;20.70;99.90;;;;;;4994436;28;20452;-72
2022/06/06 09:17:58;;;;;;;5.13;4.63;;;20.90;99.90;;;;;;5008465;28;20644;-72
2022/06/06 09:20:57;;;;;;;6.30;5.70;;;20.90;99.90;;;;;;5004357;28;20412;-72
2022/06/06 09:24:24;;;;;;;7.90;5.80;;;20.90;99.90;;;;;;5008536;28;20825;-72
2022/06/06 09:27:32;;;;;;;5.30;4.80;;;20.70;99.90;;;;;;5004116;28;20474;-72
2022/06/06 09:30:40;;;;;;;8.50;4.40;;;20.60;99.90;;;;;;5003278;28;20954;-72
2022/06/06 09:34:03;;;;;;;8.03;4.90;;;20.70;99.90;;;;;;5001499;28;20486;-72
2022/06/06 09:37:04;;;;;;;5.30;4.60;;;20.80;99.90;;;;;;4997554;28;20521;-69
2022/06/06 09:39:57;;;;;;;7.33;4.50;;;21.00;99.90;;;;;;5005120;28;20924;-70
2022/06/06 09:43:04;;;;;;;6.10;3.20;;;21.00;99.90;;;;;;5009577;28;20815;-70
2022/06/06 09:46:34;;;;;;;5.23;2.77;;;20.90;99.90;;;;;;5008748;28;20815;-69
2022/06/06 09:49:59;;;;;;;4.40;2.77;;;21.00;99.90;;;;;;5003997;28;20609;-69
2022/06/06 09:53:40;;;;;;;7.40;3.20;;;21.20;99.90;;;;;;5009864;28;20446;-70
2022/06/06 10:00:23;;;;;;;3.27;2.30;;;21.80;99.90;;;;;;4977881;28;20497;-70
2022/06/06 10:03:34;;;;;;;4.70;2.53;;;22.00;99.90;;;;;;5004574;28;20983;-70
2022/06/06 10:06:46;;;;;;;2.93;2.40;;;22.10;99.90;;;;;;5000623;28;20527;-70
2022/06/06 10:10:21;;;;;;;8.37;2.50;;;22.20;99.90;;;;;;5004065;28;20580;-70
2022/06/06 10:13:24;;;;;;;7.10;2.40;;;22.40;99.90;;;;;;4967595;28;20582;-70
2022/06/06 10:16:27;;;;;;;6.83;2.83;;;22.60;99.90;;;;;;4966918;28;20574;-70
2022/06/06 10:19:28;;;;;;;8.10;3.77;;;22.70;99.90;;;;;;5001513;28;20432;-72
2022/06/06 10:22:41;;;;;;;6.87;3.33;;;22.80;99.90;;;;;;5005736;28;20487;-72
2022/06/06 10:26:01;;;;;;;12.93;3.53;;;23.00;99.90;;;;;;4982294;28;20465;-72
2022/06/06 10:29:09;;;;;;;3.30;2.80;;;23.00;99.90;;;;;;5007537;28;20444;-72
2022/06/06 10:32:21;;;;;;;6.60;3.20;;;22.70;99.90;;;;;;5010934;28;20444;-72
2022/06/06 10:35:21;;;;;;;8.80;3.70;;;22.50;99.90;;;;;;5007964;28;20477;-71
2022/06/06 10:38:23;;;;;;;6.53;2.87;;;22.40;99.90;;;;;;5006477;28;20412;-72
2022/06/06 10:41:26;;;;;;;3.17;2.50;;;22.40;99.90;;;;;;5004322;28;20456;-72
2022/06/06 10:44:43;;;;;;;5.00;2.77;;;22.10;99.90;;;;;;5008447;28;21024;-72
2022/06/06 10:47:54;;;;;;;3.80;2.80;;;21.80;99.90;;;;;;5001692;28;20808;-72
2022/06/06 10:54:59;;;;;;;3.97;2.93;;;21.40;99.90;;;;;;4962259;28;20518;-72
2022/06/06 10:58:26;;;;;;;6.83;3.10;;;21.40;99.90;;;;;;4931464;28;20423;-72
2022/06/06 11:01:52;;;;;;;3.17;2.30;;;21.30;99.90;;;;;;5005413;28;20436;-72
2022/06/06 11:05:04;;;;;;;4.37;2.60;;;21.30;99.90;;;;;;5009455;28;20438;-73
2022/06/06 11:08:21;;;;;;;4.63;2.90;;;21.40;99.90;;;;;;5006032;28;20555;-72
2022/06/06 11:11:32;;;;;;;3.37;2.63;;;21.40;99.90;;;;;;5009173;28;20423;-73
2022/06/06 11:14:28;;;;;;;7.17;2.83;;;21.50;99.90;;;;;;5006124;28;20465;-70
2022/06/06 11:17:47;;;;;;;7.83;2.70;;;21.40;99.90;;;;;;5003055;28;20514;-72
2022/06/06 11:21:06;;;;;;;4.40;3.27;;;21.40;99.90;;;;;;5014124;28;20423;-73
2022/06/06 11:24:00;;;;;;;5.80;2.60;;;21.30;99.90;;;;;;5008714;28;20453;-72
2022/06/06 11:27:14;;;;;;;4.10;2.80;;;21.20;99.90;;;;;;5005615;28;20465;-71
2022/06/06 11:30:17;;;;;;;3.83;2.87;;;21.20;99.90;;;;;;5004418;28;20895;-72
2022/06/06 11:33:39;;;;;;;7.70;2.67;;;21.30;99.90;;;;;;5008572;28;20986;-72
2022/06/06 11:36:46;;;;;;;4.27;2.70;;;21.50;99.90;;;;;;5006037;28;20500;-72
2022/06/06 11:40:09;;;;;;;6.70;3.20;;;21.60;99.90;;;;;;5012470;28;20573;-72
2022/06/06 11:43:20;;;;;;;3.47;2.57;;;22.00;99.90;;;;;;5009332;28;20785;-72
2022/06/06 11:46:45;;;;;;;9.30;4.53;;;22.30;99.90;;;;;;4984052;28;20473;-72
2022/06/06 11:50:17;;;;;;;3.67;2.87;;;22.00;99.90;;;;;;5006390;28;20449;-72
2022/06/06 11:53:35;;;;;;;3.90;2.80;;;21.90;99.90;;;;;;5008823;28;20475;-72
2022/06/06 11:56:45;;;;;;;7.83;3.53;;;21.90;99.90;;;;;;5006328;28;20591;-72
2022/06/06 12:00:06;;;;;;;4.70;3.13;;;21.90;99.90;;;;;;5001094;28;20428;-73
2022/06/06 12:03:20;;;;;;;4.30;2.50;;;21.70;99.90;;;;;;5005874;28;20513;-72
2022/06/06 12:06:46;;;;;;;4.00;3.37;;;21.60;99.90;;;;;;5002680;28;20467;-73
2022/06/06 12:09:44;;;;;;;3.43;2.80;;;21.60;99.90;;;;;;5004691;28;20499;-72
2022/06/06 12:12:48;;;;;;;2.87;2.07;;;21.70;99.90;;;;;;5008801;28;20435;-72
2022/06/06 12:16:04;;;;;;;3.63;2.53;;;21.60;99.90;;;;;;5003689;28;20999;-73
2022/06/06 12:19:20;;;;;;;4.27;2.53;;;21.50;99.90;;;;;;5002295;28;20432;-73
2022/06/06 12:22:41;;;;;;;8.80;2.20;;;21.40;99.90;;;;;;5009449;28;20812;-73
2022/06/06 12:26:06;;;;;;;5.60;2.40;;;21.40;99.90;;;;;;4976052;28;20448;-73
2022/06/06 12:29:18;;;;;;;2.80;1.90;;;21.40;99.90;;;;;;5007825;28;20992;-73
2022/06/06 12:32:34;;;;;;;4.73;2.00;;;21.90;99.90;;;;;;4994378;28;20469;-72
2022/06/06 12:35:24;;;;;;;4.10;2.50;;;22.40;99.90;;;;;;5010140;28;20834;-73
2022/06/06 12:38:25;;;;;;;9.53;2.47;;;22.90;99.90;;;;;;5006856;28;20449;-71
2022/06/06 12:41:27;;;;;;;2.60;1.90;;;23.20;96.00;;;;;;5007989;28;20517;-72
2022/06/06 12:44:31;;;;;;;3.90;2.13;;;23.30;92.90;;;;;;5007079;28;20857;-72
2022/06/06 12:47:34;;;;;;;3.93;2.10;;;23.40;84.00;;;;;;5006219;28;20755;-72
2022/06/06 12:50:36;;;;;;;7.03;2.00;;;23.50;86.70;;;;;;5001222;28;20447;-71
2022/06/06 12:53:54;;;;;;;4.13;1.87;;;23.60;84.00;;;;;;5004968;28;20419;-72
2022/06/06 12:56:54;;;;;;;2.90;1.60;;;23.50;75.80;;;;;;5006024;28;20603;-71
2022/06/06 12:59:54;;;;;;;5.33;2.10;;;23.30;77.30;;;;;;5008505;28;20428;-72
2022/06/06 13:02:59;;;;;;;3.27;1.47;;;23.40;77.50;;;;;;5002162;28;20453;-71
2022/06/06 13:05:56;;;;;;;3.60;1.73;;;23.70;74.10;;;;;;5006981;28;20486;-72
2022/06/06 13:09:02;;;;;;;4.43;1.67;;;23.90;68.00;;;;;;5006112;28;20431;-71
2022/06/06 13:12:06;;;;;;;3.40;2.07;;;24.10;63.60;;;;;;5002506;28;20444;-72
2022/06/06 13:15:08;;;;;;;3.20;1.70;;;24.20;65.30;;;;;;5005017;28;20551;-72
2022/06/06 13:18:28;;;;;;;3.53;1.67;;;24.00;59.20;;;;;;5004691;28;21116;-71
2022/06/06 13:21:21;;;;;;;3.83;1.67;;;24.10;65.60;;;;;;5005501;28;20460;-71
2022/06/06 13:24:41;;;;;;;2.80;1.63;;;24.40;70.70;;;;;;5008919;28;20427;-72
2022/06/06 13:27:29;;;;;;;7.23;1.70;;;24.60;66.20;;;;;;4999920;28;20447;-71
2022/06/06 13:30:23;;;;;;;4.63;1.60;;;24.40;61.20;;;;;;5002940;28;20469;-72
2022/06/06 13:33:23;;;;;;;5.83;1.83;;;24.40;63.40;;;;;;5005886;28;20459;-71
2022/06/06 13:36:16;;;;;;;4.77;2.20;;;24.50;58.70;;;;;;5000345;28;20934;-71
2022/06/06 13:39:14;;;;;;;2.97;2.03;;;24.70;58.30;;;;;;5010263;28;20442;-72
2022/06/06 13:42:08;;;;;;;3.40;1.77;;;24.60;57.00;;;;;;5003617;28;20446;-71
2022/06/06 13:45:25;;;;;;;5.67;1.60;;;24.70;58.30;;;;;;5005072;28;20457;-72
2022/06/06 13:48:34;;;;;;;3.20;1.67;;;24.60;61.00;;;;;;5000963;28;20445;-72
2022/06/06 13:51:35;;;;;;;2.40;1.53;;;24.80;60.40;;;;;;5007322;28;20464;-71
2022/06/06 13:54:30;;;;;;;5.47;2.13;;;25.00;59.80;;;;;;5002157;28;20560;-71
2022/06/06 13:57:24;;;;;;;6.90;1.60;;;25.20;63.50;;;;;;4998879;28;20563;-71
2022/06/06 14:00:19;;;;;;;4.20;2.03;;;25.20;61.40;;;;;;5003333;28;20969;-71
2022/06/06 14:03:29;;;;;;;4.47;1.80;;;25.30;59.80;;;;;;5007557;28;20457;-72
2022/06/06 14:06:30;;;;;;;4.87;2.20;;;25.20;58.80;;;;;;5008400;28;20847;-71
2022/06/06 14:09:17;;;;;;;3.33;1.80;;;25.10;60.40;;;;;;5004964;28;20424;-71
2022/06/06 14:12:22;;;;;;;3.60;1.90;;;25.10;60.00;;;;;;5005567;28;20604;-72
2022/06/06 14:15:12;;;;;;;3.20;1.63;;;24.70;61.80;;;;;;5002006;28;20466;-70
2022/06/06 14:18:01;;;;;;;2.77;1.87;;;24.60;60.00;;;;;;5036499;22;20651;-72
2022/06/06 14:20:52;;;;;;;8.10;2.20;;;24.30;60.00;;;;;;5023578;28;20683;-70
2022/06/06 14:23:40;;;;;;;3.27;1.80;;;23.90;64.80;;;;;;5024049;28;20798;-71
2022/06/06 14:26:25;;;;;;;5.30;1.93;;;23.80;69.60;;;;;;5018780;28;20968;-71
2022/06/06 14:29:15;;;;;;;3.17;1.50;;;23.90;68.10;;;;;;5027709;28;20448;-71
2022/06/06 14:32:03;;;;;;;6.20;1.90;;;23.90;66.70;;;;;;5026387;28;21052;-71
2022/06/06 14:34:51;;;;;;;3.27;1.90;;;23.90;68.10;;;;;;5021643;28;20562;-71
2022/06/06 14:37:38;;;;;;;6.43;1.97;;;23.60;68.90;;;;;;5022889;28;20838;-71
2022/06/06 14:40:38;;;;;;;4.50;2.40;;;23.60;69.50;;;;;;5022480;28;20423;-71
2022/06/06 14:43:24;;;;;;;4.17;2.07;;;23.40;69.30;;;;;;5026300;28;20435;-71
2022/06/06 14:46:11;;;;;;;3.87;2.10;;;23.20;68.30;;;;;;5019814;28;20455;-71
2022/06/06 14:49:00;;;;;;;11.53;2.20;;;23.20;72.10;;;;;;5025810;28;20447;-71
2022/06/06 14:51:47;;;;;;;3.73;1.83;;;23.20;72.60;;;;;;5025120;28;20661;-70
2022/06/06 14:54:34;;;;;;;4.90;1.90;;;23.10;71.10;;;;;;5024471;28;20427;-71
2022/06/06 14:57:20;;;;;;;2.30;1.63;;;23.00;73.40;;;;;;5021796;28;20562;-70
2022/06/06 15:00:14;;;;;;;4.57;2.13;;;22.90;73.40;;;;;;5024672;28;20503;-71
2022/06/06 15:03:05;;;;;;;3.80;2.07;;;22.90;74.40;;;;;;5027053;28;20940;-71
2022/06/06 15:06:05;;;;;;;4.10;1.90;;;23.00;74.60;;;;;;5020256;28;20470;-71
2022/06/06 15:09:00;;;;;;;4.40;1.80;;;23.00;72.70;;;;;;5023981;28;20593;-74
2022/06/06 15:11:47;;;;;;;10.63;1.90;;;23.00;73.70;;;;;;5026135;28;20407;-74
2022/06/06 15:14:35;;;;;;;6.83;1.90;;;23.00;73.40;;;;;;5026136;28;20459;-74
2022/06/06 15:17:22;;;;;;;6.93;1.70;;;22.90;75.20;;;;;;5027046;28;20829;-74
2022/06/06 15:20:20;;;;;;;7.67;2.20;;;22.90;77.00;;;;;;5025722;28;21244;-74
2022/06/06 15:23:20;;;;;;;10.70;2.00;;;22.80;78.50;;;;;;5019717;28;20448;-73
2022/06/06 15:26:15;;;;;;;6.43;2.10;;;22.70;76.80;;;;;;5025927;28;20432;-73
2022/06/06 15:29:11;;;;;;;8.23;2.00;;;22.70;75.70;;;;;;5027252;28;20814;-74
2022/06/06 15:32:07;;;;;;;2.70;1.70;;;22.70;73.90;;;;;;5023572;28;20531;-74
2022/06/06 15:35:06;;;;;;;3.23;1.77;;;23.00;68.90;;;;;;5023333;28;20448;-75
2022/06/06 15:38:04;;;;;;;3.00;1.90;;;23.10;67.50;;;;;;5024136;28;20825;-74
2022/06/06 15:41:00;;;;;;;10.00;1.60;;;23.30;64.80;;;;;;5023290;28;20452;-75
2022/06/06 15:43:54;;;;;;;3.90;1.83;;;23.10;64.90;;;;;;5022607;28;20448;-74
2022/06/06 15:46:55;;;;;;;4.63;1.80;;;22.90;65.10;;;;;;5024249;28;20460;-74
2022/06/06 15:50:18;;;;;;;3.30;1.30;;;22.80;67.90;;;;;;5023019;28;20434;-74
2022/06/06 15:53:35;;;;;;;7.60;1.70;;;22.90;65.70;;;;;;5025090;28;20580;-75